Time;durP1;ratioP1;P1;durP2;ratioP2;P2;SDS_P1;SDS_P2;PMS_P1;PMS_P2;Temp;Humidity;BMP_temperature;BMP_pressure;BME280_temperature;BME280_humidity;BME280_pressure;Samples;Min_cycle;Max_cycle;Signal;HPM_P1;HPM_P2
2021/11/30 00:00:23;;;;;;;3.33;3.03;;;;;;;1.91;66.37;98640.72;5077319;23;20229;-83
2021/11/30 00:02:56;;;;;;;3.57;3.10;;;;;;;1.95;66.27;98649.06;5077735;23;20228;-83
2021/11/30 00:05:24;;;;;;;3.43;3.13;;;;;;;1.93;66.72;98653.72;5069427;28;20262;-83
2021/11/30 00:08:14;;;;;;;2.97;2.73;;;;;;;1.90;67.00;98669.94;5095348;22;20636;-83
2021/11/30 00:10:47;;;;;;;3.30;2.87;;;;;;;1.76;66.93;98669.00;5083253;28;20242;-83
2021/11/30 00:13:18;;;;;;;2.80;2.60;;;;;;;1.81;67.41;98671.06;5072237;28;20236;-82
2021/11/30 00:15:52;;;;;;;2.80;2.60;;;;;;;1.64;67.90;98673.09;5088983;28;20231;-83
2021/11/30 00:18:19;;;;;;;3.23;2.70;;;;;;;1.70;67.19;98669.72;5088157;28;20228;-83
2021/11/30 00:20:49;;;;;;;3.07;2.53;;;;;;;1.64;67.58;98679.19;5079185;23;20228;-82
2021/11/30 00:23:15;;;;;;;3.00;2.70;;;;;;;1.57;68.38;98674.84;5071805;28;20239;-83
2021/11/30 00:25:57;;;;;;;2.70;2.50;;;;;;;1.58;68.93;98682.59;5084723;28;20255;-83
2021/11/30 00:28:25;;;;;;;2.40;2.20;;;;;;;1.81;67.99;98694.84;5036021;23;20291;-83
2021/11/30 00:31:02;;;;;;;2.50;2.30;;;;;;;1.60;68.51;98680.56;5009548;28;20270;-83
2021/11/30 00:33:49;;;;;;;2.50;2.13;;;;;;;1.60;68.93;98685.03;5077342;23;20248;-83
2021/11/30 00:36:24;;;;;;;2.77;2.57;;;;;;;1.71;68.33;98700.41;5105134;23;20232;-83
2021/11/30 00:39:17;;;;;;;2.83;2.47;;;;;;;1.71;68.86;98705.69;5093538;28;20220;-83
2021/11/30 00:41:51;;;;;;;2.90;2.60;;;;;;;1.56;69.70;98704.91;5094019;28;20243;-83
2021/11/30 00:44:31;;;;;;;3.27;2.77;;;;;;;1.56;69.52;98705.72;5098679;23;20239;-82
2021/11/30 00:47:05;;;;;;;3.13;2.77;;;;;;;1.59;69.69;98715.91;5102961;23;20255;-82
2021/11/30 00:49:36;;;;;;;3.47;3.17;;;;;;;1.70;69.25;98711.97;5080568;23;20225;-83
2021/11/30 00:52:38;;;;;;;4.77;3.10;;;;;;;1.60;69.51;98717.53;5056740;28;20291;-83
2021/11/30 00:55:28;;;;;;;3.73;2.80;;;;;;;1.75;69.02;98731.53;5088712;23;20286;-83
2021/11/30 00:58:35;;;;;;;3.20;2.87;;;;;;;1.85;68.40;98722.50;5076537;28;20213;-83
2021/11/30 01:01:40;;;;;;;3.23;2.70;;;;;;;1.90;68.10;98728.06;5096941;28;20261;-83
2021/11/30 01:04:33;;;;;;;3.60;3.00;;;;;;;1.74;68.65;98723.81;5088853;23;20225;-83
2021/11/30 01:07:25;;;;;;;4.37;3.07;;;;;;;1.73;68.39;98736.19;5077429;28;20217;-83
2021/11/30 01:10:35;;;;;;;3.63;3.10;;;;;;;1.77;68.25;98741.94;5077098;28;20201;-83
2021/11/30 01:13:13;;;;;;;3.63;3.30;;;;;;;1.68;67.62;98730.63;5080837;23;20221;-83
2021/11/30 01:16:10;;;;;;;3.37;2.70;;;;;;;1.84;67.45;98744.63;5065202;23;20268;-84
2021/11/30 01:19:12;;;;;;;3.77;3.17;;;;;;;1.87;67.26;98755.66;5095272;23;20220;-83
2021/11/30 01:21:46;;;;;;;4.83;3.20;;;;;;;1.67;67.79;98717.63;5079347;28;20228;-84
2021/11/30 01:24:18;;;;;;;3.40;3.10;;;;;;;1.75;67.57;98755.31;5041635;23;20214;-83
2021/11/30 01:26:50;;;;;;;3.80;3.33;;;;;;;1.76;67.72;98729.72;5081611;22;20229;-84
2021/11/30 01:29:44;;;;;;;3.77;3.40;;;;;;;1.81;67.75;98766.97;5099744;22;20216;-84
2021/11/30 01:32:14;;;;;;;3.80;3.37;;;;;;;1.85;68.28;98775.34;5171496;23;20256;-83
2021/11/30 01:34:43;;;;;;;3.67;3.27;;;;;;;1.61;68.45;98755.31;5033960;28;20290;-83
2021/11/30 01:37:17;;;;;;;3.20;2.90;;;;;;;1.71;68.78;98780.47;5075769;23;20249;-82
2021/11/30 01:39:59;;;;;;;3.37;3.07;;;;;;;1.78;68.59;98784.00;5058843;23;20588;-82
2021/11/30 01:42:30;;;;;;;3.87;3.27;;;;;;;1.57;68.81;98780.47;5072829;28;20232;-83
2021/11/30 01:45:11;;;;;;;4.10;2.97;;;;;;;1.80;68.60;98797.03;5073254;28;20661;-82
2021/11/30 01:50:39;;;;;;;3.17;2.80;;;;;;;1.74;69.07;98793.28;5071567;28;20205;-82
2021/11/30 01:53:09;;;;;;;3.80;3.10;;;;;;;1.77;68.29;98786.84;5068523;23;20229;-83
2021/11/30 01:55:53;;;;;;;3.83;3.10;;;;;;;1.58;68.53;98790.03;5060526;23;20316;-82
2021/11/30 01:58:23;;;;;;;3.57;3.13;;;;;;;1.61;68.93;98797.56;5052641;23;20226;-83
2021/11/30 02:00:53;;;;;;;3.97;3.07;;;;;;;1.52;68.95;98778.38;5035454;28;20186;-83
2021/11/30 02:03:43;;;;;;;3.27;2.87;;;;;;;1.58;68.69;98788.22;5052024;28;20225;-83
2021/11/30 02:06:27;;;;;;;3.60;2.90;;;;;;;1.56;68.71;98803.41;5050120;28;20568;-83
2021/11/30 02:09:38;;;;;;;3.23;2.93;;;;;;;1.56;68.59;98797.31;5091289;22;20228;-83
2021/11/30 02:12:10;;;;;;;3.00;2.80;;;;;;;1.60;68.98;98799.41;5074166;22;20247;-83
2021/11/30 02:14:38;;;;;;;3.67;2.97;;;;;;;1.62;68.41;98794.75;5015926;28;20242;-83
2021/11/30 02:17:09;;;;;;;3.03;2.60;;;;;;;1.51;68.57;98781.19;5050686;28;20296;-83
2021/11/30 02:19:53;;;;;;;3.17;2.60;;;;;;;1.70;67.95;98797.28;5049458;28;20245;-83
2021/11/30 02:22:51;;;;;;;3.10;2.80;;;;;;;1.72;68.20;98808.50;5049436;28;20241;-83
2021/11/30 02:25:25;;;;;;;3.10;2.80;;;;;;;1.69;68.72;98797.47;5015744;28;20241;-83
2021/11/30 02:27:57;;;;;;;2.93;2.50;;;;;;;1.71;68.22;98809.50;5032973;28;20245;-82
2021/11/30 02:30:29;;;;;;;2.50;2.30;;;;;;;1.81;67.92;98801.31;5049667;28;20230;-82
2021/11/30 02:33:16;;;;;;;2.70;2.50;;;;;;;1.74;68.19;98819.69;5049636;28;20190;-82
2021/11/30 02:35:46;;;;;;;2.83;2.40;;;;;;;1.79;68.69;98811.22;5070820;23;20263;-84
2021/11/30 02:38:15;;;;;;;3.00;2.70;;;;;;;1.77;68.98;98805.31;5089827;28;20237;-83
2021/11/30 02:40:46;;;;;;;2.77;2.57;;;;;;;1.72;68.75;98813.78;5090164;28;20276;-83
2021/11/30 02:43:38;;;;;;;3.23;2.70;;;;;;;1.57;69.67;98796.31;5088928;28;20224;-83
2021/11/30 02:46:07;;;;;;;2.67;2.47;;;;;;;1.53;69.63;98795.84;5072498;28;20282;-83
2021/11/30 02:48:39;;;;;;;4.60;2.80;;;;;;;1.54;69.42;98812.53;5073081;23;20292;-83
2021/11/30 02:51:09;;;;;;;3.30;2.90;;;;;;;1.44;70.07;98806.69;5069715;28;20235;-82
2021/11/30 02:53:43;;;;;;;4.77;3.57;;;;;;;1.57;69.78;98809.50;5068327;28;20221;-83
2021/11/30 02:56:10;;;;;;;2.97;2.70;;;;;;;1.48;70.22;98811.41;5137141;23;20299;-83
2021/11/30 02:58:41;;;;;;;3.17;2.87;;;;;;;1.54;70.16;98826.50;5067749;28;20252;-83
2021/11/30 03:01:12;;;;;;;3.70;3.33;;;;;;;1.44;69.73;98811.97;5066456;23;20296;-83
2021/11/30 03:03:42;;;;;;;3.40;3.10;;;;;;;1.56;69.60;98805.22;5088947;28;20280;-83
2021/11/30 03:06:11;;;;;;;3.33;3.07;;;;;;;1.61;69.98;98816.06;5088813;28;20228;-83
2021/11/30 03:08:41;;;;;;;3.73;3.10;;;;;;;1.71;69.44;98819.25;5086965;28;20244;-83
2021/11/30 03:11:18;;;;;;;3.47;3.17;;;;;;;1.66;69.46;98822.44;5071709;28;20244;-83
2021/11/30 03:13:49;;;;;;;3.70;3.40;;;;;;;1.68;69.51;98828.34;5088504;28;20208;-83
2021/11/30 03:16:18;;;;;;;3.50;3.20;;;;;;;1.64;69.63;98824.44;5072203;28;20227;-83
2021/11/30 03:21:18;;;;;;;3.50;3.20;;;;;;;1.65;69.93;98828.72;5007840;22;20242;-83
2021/11/30 03:23:47;;;;;;;3.10;2.80;;;;;;;1.43;69.62;98808.50;5053966;23;20230;-83
2021/11/30 03:26:20;;;;;;;3.67;3.10;;;;;;;1.70;68.99;98830.81;5137925;23;20224;-83
2021/11/30 03:28:49;;;;;;;3.73;3.43;;;;;;;1.41;70.08;98826.31;5075981;23;20228;-83
2021/11/30 03:34:13;;;;;;;3.50;3.20;;;;;;;1.38;70.17;98833.78;5095032;23;20295;-83
2021/11/30 03:36:44;;;;;;;3.40;3.10;;;;;;;1.51;69.56;98831.34;5088210;28;20642;-84
2021/11/30 03:39:19;;;;;;;3.00;2.80;;;;;;;1.49;69.37;98823.63;5086791;28;20221;-83
2021/11/30 03:44:40;;;;;;;3.00;2.70;;;;;;;1.72;69.09;98836.75;5012310;23;20218;-83
2021/11/30 03:47:09;;;;;;;3.00;2.80;;;;;;;1.60;69.43;98817.06;5030201;28;20230;-83
2021/11/30 03:49:44;;;;;;;2.80;2.60;;;;;;;1.75;68.40;98825.78;5046410;28;20228;-83
2021/11/30 03:52:37;;;;;;;3.43;2.80;;;;;;;1.82;68.68;98834.63;5048586;28;20265;-83
2021/11/30 03:55:07;;;;;;;3.20;2.90;;;;;;;1.97;68.30;98816.13;5031545;28;20236;-83
2021/11/30 03:57:58;;;;;;;2.60;2.40;;;;;;;1.97;68.21;98829.31;5050545;28;20294;-83
2021/11/30 04:00:28;;;;;;;3.17;2.87;;;;;;;2.00;67.34;98829.81;5031465;28;20234;-83
2021/11/30 04:03:27;;;;;;;3.33;2.80;;;;;;;2.13;67.49;98829.97;5033863;28;20178;-83
2021/11/30 04:05:55;;;;;;;2.83;2.43;;;;;;;1.98;67.14;98825.69;5049469;28;20612;-84
2021/11/30 04:08:24;;;;;;;2.50;2.30;;;;;;;2.02;67.00;98826.94;5030768;28;20237;-84
2021/11/30 04:11:00;;;;;;;2.70;2.50;;;;;;;1.98;67.10;98842.34;5015102;23;20234;-83
2021/11/30 04:13:42;;;;;;;2.90;2.70;;;;;;;1.81;67.31;98817.16;5018703;23;20259;-83
2021/11/30 04:16:22;;;;;;;2.93;2.67;;;;;;;2.04;66.74;98841.63;5014004;28;20229;-83
2021/11/30 04:18:58;;;;;;;3.13;2.90;;;;;;;1.94;66.39;98835.81;5023203;23;20281;-83
2021/11/30 04:21:25;;;;;;;2.87;2.67;;;;;;;1.86;66.88;98835.09;5065035;23;20260;-83
2021/11/30 04:23:55;;;;;;;2.93;2.53;;;;;;;1.82;67.16;98834.63;5048244;23;20230;-83
2021/11/30 04:26:25;;;;;;;3.67;3.13;;;;;;;1.76;66.72;98811.59;5121236;23;20221;-83
2021/11/30 04:28:56;;;;;;;4.00;3.20;;;;;;;1.94;65.92;98838.44;5051444;28;20240;-83
2021/11/30 04:31:35;;;;;;;2.90;2.70;;;;;;;1.85;65.89;98821.06;5051228;28;20189;-83
2021/11/30 04:34:31;;;;;;;3.93;3.17;;;;;;;1.93;65.21;98831.53;5075776;22;20302;-82
2021/11/30 04:37:15;;;;;;;3.20;2.90;;;;;;;1.91;65.82;98835.38;5058309;22;20218;-83
2021/11/30 04:40:10;;;;;;;3.10;2.83;;;;;;;1.95;65.31;98836.63;5068602;23;20221;-83
2021/11/30 04:42:45;;;;;;;3.43;3.10;;;;;;;1.89;64.63;98818.88;5068762;23;20233;-82
2021/11/30 04:45:46;;;;;;;3.67;3.37;;;;;;;2.02;63.93;98834.88;5038157;23;20221;-83
2021/11/30 04:48:41;;;;;;;3.43;3.13;;;;;;;2.02;64.16;98830.41;4952862;29;20235;-82
2021/11/30 04:51:35;;;;;;;3.60;2.90;;;;;;;1.98;64.29;98833.59;4956174;29;20225;-83
2021/11/30 04:54:40;;;;;;;3.53;3.23;;;;;;;1.89;65.09;98824.16;5000825;23;20241;-82
2021/11/30 04:57:11;;;;;;;3.60;3.13;;;;;;;2.07;64.06;98846.53;5079013;23;20260;-82
2021/11/30 04:59:43;;;;;;;3.83;3.07;;;;;;;1.93;64.37;98823.59;5055550;28;20205;-83
2021/11/30 05:02:19;;;;;;;3.33;3.03;;;;;;;2.03;64.30;98839.16;5073987;22;20233;-83
2021/11/30 05:04:47;;;;;;;3.27;2.80;;;;;;;1.95;64.03;98834.00;5035562;28;20249;-83
2021/11/30 05:07:28;;;;;;;3.60;3.00;;;;;;;2.05;64.67;98845.09;5062451;23;20232;-82
2021/11/30 05:10:00;;;;;;;3.17;2.90;;;;;;;1.98;64.28;98838.91;5055882;22;20663;-83
2021/11/30 05:13:04;;;;;;;3.40;3.10;;;;;;;2.10;63.87;98843.50;5075046;23;20232;-83
2021/11/30 05:15:47;;;;;;;3.23;2.83;;;;;;;2.14;63.59;98839.53;5074061;28;20205;-84
2021/11/30 05:18:26;;;;;;;3.07;2.83;;;;;;;2.04;63.75;98838.16;5054882;28;20225;-83
2021/11/30 05:21:14;;;;;;;4.43;3.33;;;;;;;2.10;64.14;98851.44;5079866;23;20226;-83
2021/11/30 05:24:30;;;;;;;4.50;3.30;;;;;;;2.01;63.92;98825.31;5059189;23;20241;-83
2021/11/30 05:27:13;;;;;;;3.43;3.13;;;;;;;2.30;63.88;98849.03;5035565;28;20206;-83
2021/11/30 05:29:59;;;;;;;3.67;3.37;;;;;;;2.13;64.01;98832.59;5059973;23;20210;-82
2021/11/30 05:32:27;;;;;;;3.30;3.00;;;;;;;2.22;64.32;98852.63;5054603;28;20209;-83
2021/11/30 05:35:28;;;;;;;3.77;3.20;;;;;;;2.37;63.39;98857.88;5063970;23;20237;-83
2021/11/30 05:38:34;;;;;;;3.40;3.10;;;;;;;2.36;63.43;98858.06;5065840;23;20256;-82
2021/11/30 05:41:32;;;;;;;3.90;3.07;;;;;;;2.23;63.80;98842.88;5043758;28;20221;-81
2021/11/30 05:47:25;;;;;;;3.33;3.03;;;;;;;2.36;63.16;98856.25;5069178;22;20258;-83
2021/11/30 05:50:16;;;;;;;3.93;3.30;;;;;;;2.47;62.11;98852.31;5061560;23;20228;-83
2021/11/30 05:52:55;;;;;;;3.20;2.90;;;;;;;2.52;61.77;98845.44;5068284;23;20239;-84
2021/11/30 05:56:14;;;;;;;3.63;3.30;;;;;;;2.46;62.77;98867.34;5070207;23;20233;-82
2021/11/30 05:59:16;;;;;;;3.43;3.13;;;;;;;2.46;62.83;98861.25;5074893;23;20234;31
2021/11/30 06:06:08;;;;;;;3.63;3.23;;;;;;;2.60;63.44;98870.94;5094641;28;20284;-82
2021/11/30 06:08:57;;;;;;;3.80;3.30;;;;;;;2.64;63.21;98870.41;5083841;23;20213;-82
2021/11/30 06:11:43;;;;;;;3.63;3.33;;;;;;;2.64;63.76;98848.41;5019992;28;20203;-83
2021/11/30 06:14:32;;;;;;;3.67;3.37;;;;;;;2.64;63.90;98865.09;5034887;28;20266;-83
2021/11/30 06:17:22;;;;;;;3.67;3.37;;;;;;;2.74;63.73;98845.47;5068453;23;20221;-83
2021/11/30 06:20:01;;;;;;;3.67;3.37;;;;;;;2.59;64.41;98830.47;5184675;22;20229;-82
2021/11/30 06:23:00;;;;;;;3.50;3.20;;;;;;;2.71;64.67;98838.72;5073360;23;20237;-82
2021/11/30 06:26:17;;;;;;;3.70;3.40;;;;;;;2.84;64.76;98852.09;5085371;22;20213;-83
2021/11/30 06:29:19;;;;;;;4.10;3.20;;;;;;;2.66;64.90;98847.19;5095420;28;20188;-82
2021/11/30 06:32:03;;;;;;;4.33;3.13;;;;;;;2.72;64.78;98850.09;5092080;23;20220;-83
2021/11/30 06:34:54;;;;;;;4.30;3.20;;;;;;;2.83;64.34;98852.25;5075286;23;20209;-83
2021/11/30 06:38:26;;;;;;;3.40;3.10;;;;;;;2.76;64.80;98862.75;5077123;28;20213;-84
2021/11/30 06:41:28;;;;;;;2.77;2.57;;;;;;;2.92;63.63;98859.06;5072319;22;20229;-83
2021/11/30 06:44:21;;;;;;;3.10;2.80;;;;;;;2.82;63.85;98850.63;5089571;22;20233;-83
2021/11/30 06:47:10;;;;;;;3.20;2.90;;;;;;;2.77;63.76;98845.91;5103934;22;20221;-83
2021/11/30 06:49:44;;;;;;;3.20;2.90;;;;;;;2.98;63.58;98864.44;5043480;28;20193;-83
2021/11/30 06:53:06;;;;;;;3.50;3.20;;;;;;;2.98;63.69;98847.72;5096917;22;20237;-83
2021/11/30 06:55:54;;;;;;;8.40;6.47;;;;;;;3.05;62.96;98867.94;5076788;28;20200;-84
2021/11/30 06:58:40;;;;;;;13.23;10.37;;;;;;;3.04;62.95;98854.88;5091310;23;20237;-83
2021/11/30 07:01:19;;;;;;;6.03;4.77;;;;;;;3.05;62.42;98844.13;5164376;23;20304;-82
2021/11/30 07:04:07;;;;;;;7.67;6.20;;;;;;;3.23;62.54;98850.78;5082034;23;20213;-83
2021/11/30 07:07:29;;;;;;;8.60;4.87;;;;;;;3.14;62.55;98858.03;5022962;28;20235;-83
2021/11/30 07:10:52;;;;;;;5.33;4.40;;;;;;;3.26;62.27;98845.13;5046424;23;20655;-84
2021/11/30 07:13:57;;;;;;;3.03;2.73;;;;;;;3.40;61.84;98847.69;5097036;22;20226;-83
2021/11/30 07:16:52;;;;;;;2.70;2.50;;;;;;;3.43;61.74;98849.09;5091814;22;20228;-83
2021/11/30 07:19:23;;;;;;;3.23;2.10;;;;;;;3.40;61.78;98833.63;5060858;28;20233;-82
2021/11/30 07:22:22;;;;;;;2.20;2.00;;;;;;;3.43;62.05;98827.91;5109271;23;20222;-83
2021/11/30 07:28:42;;;;;;;2.47;1.90;;;;;;;3.39;61.97;98824.84;5107013;22;20221;-84
2021/11/30 07:31:21;;;;;;;2.30;2.10;;;;;;;3.38;61.54;98778.19;5132916;23;20246;-82
2021/11/30 07:33:54;;;;;;;8.93;5.60;;;;;;;3.39;61.43;98794.91;5030996;23;20174;-82
2021/11/30 07:36:31;;;;;;;3.83;3.10;;;;;;;3.51;61.37;98798.63;5077235;23;20232;-83
2021/11/30 07:39:46;;;;;;;2.10;1.90;;;;;;;3.58;61.02;98793.38;5059562;28;20204;-83
2021/11/30 07:42:39;;;;;;;3.27;2.33;;;;;;;3.67;61.11;98797.50;5095888;23;20233;-83
2021/11/30 07:45:39;;;;;;;2.83;2.60;;;;;;;3.76;61.01;98804.28;5062646;23;20214;-83
2021/11/30 07:48:39;;;;;;;14.03;8.37;;;;;;;3.68;61.47;98801.81;4957764;22;3787571;-84
2021/11/30 07:51:39;;;;;;;8.83;6.63;;;;;;;3.81;60.94;98805.34;5072751;23;20209;-83
2021/11/30 07:54:31;;;;;;;4.17;3.17;;;;;;;3.91;61.00;98797.84;5074604;28;20277;-84
2021/11/30 07:57:04;;;;;;;5.00;4.00;;;;;;;4.02;60.77;98795.63;5082081;23;20236;-84
2021/11/30 07:59:38;;;;;;;1.60;1.50;;;;;;;4.08;60.61;98787.72;5101434;23;20212;-84
2021/11/30 08:02:43;;;;;;;1.50;1.40;;;;;;;4.11;60.90;98791.78;5145234;23;20213;-84
2021/11/30 08:05:26;;;;;;;1.27;1.17;;;;;;;4.16;60.49;98792.00;5075194;23;20226;-84
2021/11/30 08:07:57;;;;;;;1.33;1.23;;;;;;;4.30;60.41;98775.13;5097548;22;20185;-84
2021/11/30 08:10:54;;;;;;;1.07;1.03;;;;;;;4.44;59.78;98798.84;5088561;22;20300;-84
2021/11/30 08:13:50;;;;;;;5.60;2.73;;;;;;;4.29;59.91;98787.56;5073279;23;20233;-84
2021/11/30 08:16:49;;;;;;;2.30;1.63;;;;;;;4.30;59.92;98789.22;5143733;23;20247;-83
2021/11/30 08:19:28;;;;;;;5.13;3.53;;;;;;;4.22;60.40;98760.22;5064772;23;20221;-83
2021/11/30 08:22:23;;;;;;;1.73;1.63;;;;;;;4.46;59.98;98787.22;5061525;23;20255;-83
2021/11/30 08:25:07;;;;;;;2.17;1.97;;;;;;;4.58;59.42;98783.75;5104827;22;20187;-83
2021/11/30 08:27:56;;;;;;;2.67;2.03;;;;;;;4.67;59.24;98782.56;5077025;23;20232;-83
2021/11/30 08:30:58;;;;;;;2.03;1.77;;;;;;;4.78;58.58;98767.88;5174965;23;20235;-83
2021/11/30 08:33:28;;;;;;;1.80;1.70;;;;;;;4.97;58.18;98756.44;5087809;28;20228;-84
2021/11/30 08:36:01;;;;;;;1.10;1.00;;;;;;;5.07;57.58;98788.72;5065177;28;20248;-82
2021/11/30 08:38:36;;;;;;;0.80;0.80;;;;;;;5.30;57.33;98786.44;5047229;28;20241;-83
2021/11/30 08:41:05;;;;;;;2.10;0.90;;;;;;;5.38;56.81;98797.88;5067458;28;20253;-83
2021/11/30 08:43:33;;;;;;;0.87;0.87;;;;;;;5.29;56.47;98778.69;5058581;23;20280;-83
2021/11/30 08:46:01;;;;;;;0.73;0.73;;;;;;;5.46;55.77;98774.56;5007714;28;20194;-83
2021/11/30 08:48:28;;;;;;;1.03;0.83;;;;;;;5.35;55.69;98766.41;5010154;28;20227;-83
2021/11/30 08:50:57;;;;;;;1.30;0.90;;;;;;;5.54;55.79;98776.19;5033442;23;20225;-83
2021/11/30 08:53:27;;;;;;;4.20;2.90;;;;;;;5.49;55.52;98771.50;5031762;28;20262;-83
2021/11/30 08:56:00;;;;;;;12.23;5.63;;;;;;;5.54;55.27;98786.81;5042706;28;20232;-83
2021/11/30 08:58:29;;;;;;;10.40;4.43;;;;;;;5.59;54.98;98790.50;5045472;28;20644;-83
2021/11/30 09:01:12;;;;;;;15.87;6.50;;;;;;;5.73;54.03;98789.44;5030284;28;20245;-83
2021/11/30 09:03:45;;;;;;;2.50;1.37;;;;;;;5.69;53.97;98780.22;5035302;28;20249;-84
2021/11/30 09:06:17;;;;;;;7.60;2.83;;;;;;;5.59;54.21;98777.22;5060002;28;20233;-83
2021/11/30 09:08:44;;;;;;;1.83;1.33;;;;;;;5.61;54.06;98761.03;5021556;23;20204;-83
2021/11/30 09:11:16;;;;;;;3.27;1.50;;;;;;;5.54;54.11;98769.03;4988332;28;20261;-83
2021/11/30 09:13:49;;;;;;;1.33;1.20;;;;;;;5.55;54.70;98783.16;5031749;23;20283;-83
2021/11/30 09:16:39;;;;;;;1.00;0.80;;;;;;;5.55;53.87;98781.28;5065633;28;20557;-84
2021/11/30 09:19:08;;;;;;;0.73;0.70;;;;;;;5.57;54.42;98786.41;5066647;28;20225;-83
2021/11/30 09:21:40;;;;;;;2.57;0.90;;;;;;;5.38;54.11;98793.38;5050739;28;20260;-84
2021/11/30 09:24:08;;;;;;;1.17;0.97;;;;;;;5.39;54.55;98787.03;5068142;28;20649;-84
2021/11/30 09:26:39;;;;;;;1.23;0.80;;;;;;;5.28;53.64;98753.97;5069329;28;20237;-83
2021/11/30 09:29:09;;;;;;;1.43;0.90;;;;;;;5.60;53.78;98772.72;5068289;28;20276;-84
2021/11/30 09:31:35;;;;;;;1.87;1.00;;;;;;;5.78;52.93;98772.03;5068206;28;20182;-83
2021/11/30 09:34:16;;;;;;;0.90;0.80;;;;;;;5.84;53.32;98758.72;5059045;28;20178;-82
2021/11/30 09:37:07;;;;;;;1.47;0.77;;;;;;;5.94;51.78;98766.28;5098269;23;20261;-82
2021/11/30 09:39:38;;;;;;;0.80;0.80;;;;;;;6.14;50.51;98756.38;5057191;23;20222;-83
2021/11/30 09:42:20;;;;;;;2.37;0.60;;;;;;;6.56;49.93;98733.63;5054139;28;20233;-83
2021/11/30 09:44:55;;;;;;;0.83;0.80;;;;;;;6.66;49.71;98759.75;5040053;28;20218;-83
2021/11/30 09:47:23;;;;;;;1.87;0.90;;;;;;;6.52;49.56;98751.06;5055057;23;20229;-83
2021/11/30 09:49:52;;;;;;;1.00;0.90;;;;;;;6.69;49.05;98727.38;5029334;23;20237;-83
2021/11/30 09:53:03;;;;;;;1.27;1.10;;;;;;;6.77;47.26;98740.41;5060819;23;20229;-83
2021/11/30 09:55:32;;;;;;;2.13;0.90;;;;;;;6.72;47.39;98719.75;5068881;22;20253;-84
2021/11/30 09:58:30;;;;;;;1.90;0.90;;;;;;;7.08;47.60;98722.56;5067501;22;20236;-84
2021/11/30 10:01:20;;;;;;;0.87;0.60;;;;;;;7.15;44.73;98703.81;5074532;28;20229;-83
2021/11/30 10:04:20;;;;;;;1.90;0.90;;;;;;;7.00;45.52;98711.34;5048221;28;20177;-83
2021/11/30 10:07:56;;;;;;;1.70;0.80;;;;;;;7.06;45.09;98697.97;5077460;23;20222;-84
2021/11/30 10:10:39;;;;;;;0.60;0.60;;;;;;;6.89;45.51;98706.75;5055304;23;20255;-84
2021/11/30 10:13:13;;;;;;;1.53;0.77;;;;;;;6.91;44.74;98697.50;5169246;23;20250;-83
2021/11/30 10:16:22;;;;;;;1.00;0.70;;;;;;;7.03;44.59;98685.09;5082247;23;20221;-84
2021/11/30 10:19:13;;;;;;;0.97;0.80;;;;;;;7.13;44.85;98686.44;5065342;23;20234;-84
2021/11/30 10:21:44;;;;;;;4.53;0.80;;;;;;;7.05;43.57;98674.22;5060919;23;20300;-84
2021/11/30 10:24:26;;;;;;;1.50;0.80;;;;;;;7.40;43.89;98671.81;5041927;28;20178;-84
2021/11/30 10:27:05;;;;;;;3.23;0.70;;;;;;;7.19;43.23;98642.94;5063675;22;20229;-83
2021/11/30 10:29:42;;;;;;;0.73;0.70;;;;;;;7.38;43.02;98666.69;5054929;28;20182;-84
2021/11/30 10:32:11;;;;;;;1.27;0.60;;;;;;;7.14;43.65;98656.13;5054165;28;20198;-84
2021/11/30 10:34:39;;;;;;;1.97;0.70;;;;;;;7.03;42.78;98645.16;5029646;28;20213;-84
2021/11/30 10:37:06;;;;;;;1.17;0.70;;;;;;;7.07;43.54;98646.34;5030567;28;20210;-84
2021/11/30 10:39:35;;;;;;;0.97;0.60;;;;;;;7.16;43.75;98644.19;5031549;28;20956;-84
2021/11/30 10:42:27;;;;;;;0.73;0.50;;;;;;;6.87;44.13;98631.59;5014322;28;20233;-84
2021/11/30 10:44:57;;;;;;;0.97;0.60;;;;;;;6.83;44.80;98633.88;5042830;22;20226;-84
2021/11/30 10:47:36;;;;;;;1.00;0.60;;;;;;;6.80;45.66;98620.19;5048209;28;20320;-83
2021/11/30 10:50:11;;;;;;;1.07;0.50;;;;;;;6.76;44.90;98597.72;5031233;28;20249;-84
2021/11/30 10:52:44;;;;;;;0.57;0.53;;;;;;;6.63;44.77;98611.94;5029959;28;20525;-83
2021/11/30 10:55:16;;;;;;;0.40;0.40;;;;;;;6.62;44.69;98619.09;5048579;28;20229;-83
2021/11/30 10:57:47;;;;;;;0.63;0.50;;;;;;;6.64;45.41;98598.44;5012846;28;20701;-84
2021/11/30 11:00:24;;;;;;;0.63;0.40;;;;;;;6.46;45.33;98590.41;5011756;28;20230;-84
2021/11/30 11:03:00;;;;;;;0.60;0.40;;;;;;;6.46;45.75;98614.34;5031046;28;20273;-84
2021/11/30 11:05:38;;;;;;;0.80;0.40;;;;;;;6.69;45.91;98596.94;5031494;28;20210;-83
2021/11/30 11:08:18;;;;;;;1.63;0.50;;;;;;;6.85;46.11;98596.41;5049308;28;20224;-84
2021/11/30 11:10:52;;;;;;;0.63;0.40;;;;;;;6.78;46.01;98574.34;5032878;28;20201;-84
2021/11/30 11:13:34;;;;;;;1.47;0.47;;;;;;;6.83;44.87;98582.47;5015759;28;20289;-84
2021/11/30 11:16:09;;;;;;;0.47;0.40;;;;;;;6.72;44.57;98584.00;5047490;28;20210;-84
2021/11/30 11:18:38;;;;;;;0.20;0.20;;;;;;;6.48;44.45;98575.06;5052807;23;20225;-83
2021/11/30 11:21:13;;;;;;;0.60;0.40;;;;;;;6.51;44.85;98566.63;5049411;28;20646;-84
2021/11/30 11:23:43;;;;;;;1.07;0.30;;;;;;;6.60;45.54;98545.84;5047936;28;20684;-83
2021/11/30 11:26:25;;;;;;;0.53;0.37;;;;;;;6.63;44.96;98550.72;5029564;28;20218;-84
2021/11/30 11:28:54;;;;;;;0.47;0.47;;;;;;;6.53;43.90;98555.75;5021885;23;20214;-82
2021/11/30 11:31:24;;;;;;;1.00;0.50;;;;;;;6.44;45.23;98560.53;5052469;23;20256;-84
2021/11/30 11:36:50;;;;;;;0.47;0.30;;;;;;;6.22;45.59;98566.47;5033352;23;20250;31
2021/11/30 11:39:26;;;;;;;0.30;0.30;;;;;;;6.23;45.65;98565.44;4993091;28;20224;-83
2021/11/30 11:42:22;;;;;;;1.03;0.30;;;;;;;6.18;45.97;98552.78;4995118;28;20244;-84
2021/11/30 11:45:15;;;;;;;1.87;1.20;;;;;;;5.93;46.20;98552.78;5040462;22;20234;-83
2021/11/30 11:47:51;;;;;;;0.90;0.30;;;;;;;6.02;46.48;98538.19;5058201;23;20236;-84
2021/11/30 11:51:16;;;;;;;0.30;0.30;;;;;;;6.03;46.19;98552.28;5044035;23;20256;-84
2021/11/30 11:53:59;;;;;;;0.30;0.30;;;;;;;5.96;46.37;98522.28;5080368;23;20209;-85
2021/11/30 11:56:36;;;;;;;0.87;0.43;;;;;;;5.82;46.56;98499.47;5140805;23;20241;-83
2021/11/30 11:59:36;;;;;;;0.30;0.30;;;;;;;5.96;46.49;98501.03;5046835;23;20230;-83
2021/11/30 12:02:27;;;;;;;0.40;0.27;;;;;;;5.88;46.65;98486.13;5054137;28;20277;-82
2021/11/30 12:05:14;;;;;;;0.70;0.20;;;;;;;5.87;47.10;98471.25;5067592;23;20233;-83
2021/11/30 12:08:25;;;;;;;0.40;0.40;;;;;;;5.85;47.33;98459.16;5043355;23;20246;-84
2021/11/30 12:10:57;;;;;;;0.67;0.30;;;;;;;5.95;47.68;98470.16;5035045;28;20214;-83
2021/11/30 12:14:34;;;;;;;0.20;0.20;;;;;;;5.97;47.84;98465.44;5059747;23;20305;-83
2021/11/30 12:17:29;;;;;;;0.87;0.30;;;;;;;5.96;48.16;98461.16;5179235;23;20225;-83
2021/11/30 12:20:44;;;;;;;2.10;0.40;;;;;;;5.99;47.92;98448.22;4988958;28;20232;-83
2021/11/30 12:23:53;;;;;;;0.50;0.50;;;;;;;6.06;47.88;98437.53;5012298;23;20588;-83
2021/11/30 12:26:31;;;;;;;0.23;0.23;;;;;;;6.16;48.27;98441.28;5065826;23;20229;-82
2021/11/30 12:29:06;;;;;;;0.33;0.30;;;;;;;6.11;47.90;98435.81;5052673;28;20221;-83
2021/11/30 12:31:44;;;;;;;1.70;0.40;;;;;;;6.09;47.99;98429.09;5020763;28;20186;-83
2021/11/30 12:34:58;;;;;;;0.33;0.27;;;;;;;6.18;48.14;98412.66;5062857;23;20210;-83
2021/11/30 12:37:36;;;;;;;0.37;0.20;;;;;;;6.17;48.41;98421.66;5035460;28;20226;-84
2021/11/30 12:40:18;;;;;;;2.07;0.40;;;;;;;6.10;48.73;98397.00;5030497;28;20218;-83
2021/11/30 12:43:18;;;;;;;0.50;0.30;;;;;;;6.16;48.03;98398.75;5032825;28;20210;-83
2021/11/30 12:45:57;;;;;;;0.73;0.20;;;;;;;6.20;47.98;98391.94;5063471;23;20236;-83
2021/11/30 12:48:45;;;;;;;0.30;0.30;;;;;;;6.16;48.79;98388.09;5032460;28;20220;-84
2021/11/30 12:51:42;;;;;;;0.40;0.23;;;;;;;6.09;48.64;98360.78;5048993;28;20215;-83
2021/11/30 12:54:24;;;;;;;1.17;0.30;;;;;;;6.06;48.75;98379.84;5069095;28;20247;-82
2021/11/30 12:56:57;;;;;;;0.30;0.30;;;;;;;6.14;48.94;98358.28;5035359;28;20248;-83
2021/11/30 12:59:40;;;;;;;1.03;0.40;;;;;;;6.03;49.52;98353.69;5070972;28;20239;-83
2021/11/30 13:02:21;;;;;;;0.30;0.30;;;;;;;5.97;49.75;98356.44;5052188;23;20227;-83
2021/11/30 13:04:56;;;;;;;1.07;0.53;;;;;;;5.89;50.44;98354.03;5070719;28;20324;-83
2021/11/30 13:07:25;;;;;;;0.30;0.30;;;;;;;5.91;50.49;98357.31;5072399;28;20213;-83
2021/11/30 13:09:56;;;;;;;0.43;0.30;;;;;;;5.93;50.76;98355.22;5056148;28;20237;-84
2021/11/30 13:12:26;;;;;;;0.37;0.20;;;;;;;5.99;49.62;98357.81;5055672;28;20225;-83
2021/11/30 13:14:56;;;;;;;1.13;0.30;;;;;;;5.96;50.04;98350.31;5054984;28;20217;-83
2021/11/30 13:17:35;;;;;;;0.90;0.20;;;;;;;5.91;50.98;98347.50;5071183;28;20251;-83